createdAt,value
2023-05-15T00:03:28.310Z,93409.00
2023-05-15T00:07:32.246Z,93410.00
2023-05-15T00:11:35.465Z,93415.00
2023-05-15T00:15:40.553Z,93416.00
2023-05-15T00:19:43.963Z,93404.00
2023-05-15T00:23:47.940Z,93408.00
2023-05-15T00:27:51.326Z,93400.00
2023-05-15T00:31:57.325Z,93401.00
2023-05-15T00:36:02.069Z,93403.00
2023-05-15T00:40:11.018Z,93395.00
2023-05-15T00:44:16.694Z,93392.00
2023-05-15T00:48:23.020Z,93394.00
2023-05-15T00:52:28.008Z,93388.00
2023-05-15T00:56:33.424Z,93376.00
2023-05-15T01:00:37.595Z,93373.00
2023-05-15T01:04:42.793Z,93379.00
2023-05-15T01:08:48.249Z,93376.00
2023-05-15T01:12:55.573Z,93367.00
2023-05-15T01:16:59.497Z,93367.00
2023-05-15T01:21:40.906Z,93365.00
2023-05-15T01:26:28.450Z,93362.00
2023-05-15T01:30:37.419Z,93368.00
2023-05-15T01:34:48.811Z,93362.00
2023-05-15T01:38:55.934Z,93360.00
2023-05-15T01:43:07.846Z,93363.00
2023-05-15T01:47:15.837Z,93357.00
2023-05-15T01:51:20.708Z,93352.00
2023-05-15T01:55:26.964Z,93357.00
2023-05-15T01:59:31.578Z,93352.00
2023-05-15T02:03:37.517Z,93353.00
2023-05-15T02:07:43.229Z,93359.00
2023-05-15T02:11:46.909Z,93347.00
2023-05-15T02:15:50.480Z,93344.00
2023-05-15T02:19:55.521Z,93357.00
2023-05-15T02:23:58.921Z,93358.00
2023-05-15T02:28:05.073Z,93358.00
2023-05-15T02:32:16.181Z,93359.00
2023-05-15T02:36:25.056Z,93352.00
2023-05-15T02:40:30.762Z,93348.00
2023-05-15T02:44:37.453Z,93356.00
2023-05-15T02:48:42.248Z,93345.00
2023-05-15T02:52:49.988Z,93341.00
2023-05-15T02:56:53.392Z,93340.00
2023-05-15T03:00:57.364Z,93342.00
2023-05-15T03:05:01.035Z,93337.00
2023-05-15T03:09:06.384Z,93330.00
2023-05-15T03:13:12.411Z,93332.00
2023-05-15T03:17:16.126Z,93330.00
2023-05-15T03:21:20.199Z,93339.00
2023-05-15T03:25:25.237Z,93335.00
2023-05-15T03:29:28.910Z,93330.00
2023-05-15T03:33:32.713Z,93329.00
2023-05-15T03:37:36.413Z,93328.00
2023-05-15T03:41:41.135Z,93316.00
2023-05-15T03:45:45.226Z,93321.00
2023-05-15T03:49:48.863Z,93317.00
2023-05-15T03:53:52.538Z,93321.00
2023-05-15T03:58:01.194Z,93320.00
2023-05-15T04:02:05.964Z,93318.00
2023-05-15T04:06:09.682Z,93315.00
2023-05-15T04:10:12.972Z,93326.00
2023-05-15T04:14:18.174Z,93316.00
2023-05-15T04:18:22.022Z,93318.00
2023-05-15T04:22:25.729Z,93317.00
2023-05-15T04:26:29.259Z,93323.00
2023-05-15T04:30:34.366Z,93313.00
2023-05-15T04:34:37.779Z,93327.00
2023-05-15T04:38:41.349Z,93326.00
2023-05-15T04:42:44.838Z,93322.00
2023-05-15T04:46:49.671Z,93323.00
2023-05-15T04:50:53.154Z,93323.00
2023-05-15T04:54:56.653Z,93327.00
2023-05-15T04:59:06.513Z,93329.00
2023-05-15T05:03:11.659Z,93318.00
2023-05-15T05:07:15.344Z,93315.00
2023-05-15T05:11:18.972Z,93325.00
2023-05-15T05:15:22.552Z,93320.00
2023-05-15T05:19:29.371Z,93325.00
2023-05-15T05:23:32.793Z,93322.00
2023-05-15T05:27:40.382Z,93319.00
2023-05-15T05:31:44.034Z,93320.00
2023-05-15T05:35:49.958Z,93329.00
2023-05-15T05:39:53.267Z,93331.00
2023-05-15T05:43:56.960Z,93334.00
2023-05-15T05:48:00.498Z,93334.00
2023-05-15T05:52:10.444Z,93331.00
2023-05-15T05:56:13.983Z,93330.00
2023-05-15T06:00:19.619Z,93336.00
2023-05-15T06:04:22.973Z,93324.00
2023-05-15T06:08:27.797Z,93335.00
2023-05-15T06:12:31.643Z,93340.00
2023-05-15T06:16:35.033Z,93340.00
2023-05-15T06:20:44.746Z,93344.00
2023-05-15T06:24:49.601Z,93346.00
2023-05-15T06:28:54.124Z,93355.00
2023-05-15T06:32:57.686Z,93349.00
2023-05-15T06:37:02.300Z,93352.00
2023-05-15T06:41:07.360Z,93331.00
2023-05-15T06:45:11.712Z,93340.00
2023-05-15T06:49:15.065Z,93344.00
2023-05-15T06:53:21.062Z,93349.00
2023-05-15T06:57:26.480Z,93341.00
2023-05-15T07:01:30.238Z,93348.00
2023-05-15T07:05:33.816Z,93348.00
2023-05-15T07:09:37.202Z,93346.00
2023-05-15T07:13:42.200Z,93356.00
2023-05-15T07:17:45.753Z,93351.00
2023-05-15T07:21:51.455Z,93355.00
2023-05-15T07:25:56.189Z,93354.00
2023-05-15T07:30:04.132Z,93366.00
2023-05-15T07:34:07.627Z,93360.00
2023-05-15T07:38:11.435Z,93375.00
2023-05-15T07:42:14.985Z,93374.00
2023-05-15T07:46:19.928Z,93372.00
2023-05-15T07:50:23.566Z,93376.00
2023-05-15T07:54:27.425Z,93383.00
2023-05-15T07:58:30.724Z,93378.00
2023-05-15T08:02:35.656Z,93373.00
2023-05-15T08:06:39.495Z,93384.00
2023-05-15T08:10:43.394Z,93385.00
2023-05-15T08:14:50.944Z,93385.00
2023-05-15T08:19:01.742Z,93378.00
2023-05-15T08:23:05.759Z,93384.00
2023-05-15T08:27:10.440Z,93381.00
2023-05-15T08:31:13.925Z,93381.00
2023-05-15T08:35:22.982Z,93393.00
2023-05-15T08:39:27.175Z,93388.00
2023-05-15T08:43:33.232Z,93398.00
2023-05-15T08:47:40.561Z,93413.00
2023-05-15T08:51:48.284Z,93414.00
2023-05-15T08:55:52.399Z,93429.00
2023-05-15T08:59:56.720Z,93435.00
2023-05-15T09:04:00.306Z,93426.00
2023-05-15T09:08:07.770Z,93421.00
2023-05-15T09:12:15.168Z,93428.00
2023-05-15T09:16:18.758Z,93433.00
2023-05-15T09:20:29.832Z,93436.00
2023-05-15T09:24:39.429Z,93441.00
2023-05-15T09:28:43.007Z,93450.00
2023-05-15T09:32:46.862Z,93459.00
2023-05-15T09:36:50.275Z,93442.00
2023-05-15T09:41:04.167Z,93448.00
2023-05-15T09:45:18.272Z,93439.00
2023-05-15T09:49:21.945Z,93439.00
2023-05-15T09:53:25.985Z,93431.00
2023-05-15T09:57:31.302Z,93437.00
2023-05-15T10:01:37.967Z,93438.00
2023-05-15T10:05:43.006Z,93443.00
2023-05-15T10:09:47.192Z,93435.00
2023-05-15T10:13:52.182Z,93428.00
2023-05-15T10:17:55.831Z,93413.00
2023-05-15T10:22:01.140Z,93425.00
2023-05-15T10:26:09.695Z,93418.00
2023-05-15T10:30:17.231Z,93436.00
2023-05-15T10:34:21.512Z,93442.00
2023-05-15T10:38:26.203Z,93433.00
2023-05-15T10:42:30.861Z,93436.00
2023-05-15T10:46:37.227Z,93426.00
2023-05-15T10:50:40.910Z,93422.00
2023-05-15T10:54:44.426Z,93420.00
2023-05-15T10:58:49.552Z,93437.00
2023-05-15T11:02:57.126Z,93420.00
2023-05-15T11:07:14.272Z,93417.00
2023-05-15T11:11:50.930Z,93410.00
2023-05-15T11:15:55.190Z,93395.00
2023-05-15T11:20:00.984Z,93407.00
2023-05-15T11:24:08.264Z,93397.00
2023-05-15T11:28:23.982Z,93415.00
2023-05-15T11:32:41.250Z,93407.00
2023-05-15T11:36:46.920Z,93421.00
2023-05-15T11:40:55.156Z,93430.00
2023-05-15T11:44:58.706Z,93435.00
2023-05-15T11:49:09.552Z,93439.00
2023-05-15T11:53:15.267Z,93442.00
2023-05-15T11:57:22.016Z,93442.00
2023-05-15T12:01:25.706Z,93448.00
2023-05-15T12:05:29.244Z,93447.00
2023-05-15T12:09:34.164Z,93468.00
2023-05-15T12:13:38.879Z,93470.00
2023-05-15T12:17:43.323Z,93459.00
2023-05-15T12:21:48.022Z,93465.00
2023-05-15T12:25:58.840Z,93449.00
2023-05-15T12:30:04.339Z,93455.00
2023-05-15T12:34:09.142Z,93439.00
2023-05-15T12:38:17.098Z,93438.00
2023-05-15T12:42:22.321Z,93447.00
2023-05-15T12:46:27.505Z,93458.00
2023-05-15T12:50:34.492Z,93472.00
2023-05-15T12:54:42.089Z,93483.00
2023-05-15T12:58:47.151Z,93482.00
2023-05-15T13:02:52.317Z,93493.00
2023-05-15T13:06:56.179Z,93482.00
2023-05-15T13:11:01.317Z,93487.00
2023-05-15T13:15:07.319Z,93490.00
2023-05-15T13:19:11.778Z,93484.00
2023-05-15T13:23:16.608Z,93474.00
2023-05-15T13:27:20.114Z,93459.00
2023-05-15T13:31:25.348Z,93460.00
2023-05-15T13:35:28.997Z,93458.00
2023-05-15T13:39:34.621Z,93453.00
2023-05-15T13:43:38.098Z,93454.00
2023-05-15T13:47:43.255Z,93457.00
2023-05-15T13:51:46.752Z,93450.00
2023-05-15T13:55:52.372Z,93464.00
2023-05-15T13:59:56.011Z,93449.00
2023-05-15T14:04:02.230Z,93469.00
2023-05-15T14:08:07.392Z,93474.00
2023-05-15T14:12:11.541Z,93473.00
2023-05-15T14:16:15.447Z,93467.00
2023-05-15T14:20:20.472Z,93488.00
2023-05-15T14:24:25.167Z,93479.00
2023-05-15T14:28:28.656Z,93471.00
2023-05-15T14:32:32.278Z,93472.00
2023-05-15T14:36:37.206Z,93478.00
2023-05-15T14:40:42.616Z,93463.00
2023-05-15T14:44:46.148Z,93462.00
2023-05-15T14:48:49.684Z,93454.00
2023-05-15T14:52:54.743Z,93457.00
2023-05-15T14:56:58.479Z,93470.00
2023-05-15T15:01:02.241Z,93468.00
2023-05-15T15:05:06.513Z,93466.00
2023-05-15T15:09:11.469Z,93460.00
2023-05-15T15:13:17.064Z,93465.00
2023-05-15T15:17:20.556Z,93451.00
2023-05-15T15:21:24.074Z,93480.00
2023-05-15T15:25:30.765Z,93469.00
2023-05-15T15:29:35.732Z,93486.00
2023-05-15T15:33:39.633Z,93482.00
2023-05-15T15:37:43.417Z,93493.00
2023-05-15T15:41:48.774Z,93477.00
2023-05-15T15:45:52.275Z,93487.00
2023-05-15T15:49:57.824Z,93481.00
2023-05-15T15:54:01.345Z,93477.00
2023-05-15T15:58:06.430Z,93470.00
2023-05-15T16:02:11.485Z,93477.00
2023-05-15T16:06:15.094Z,93465.00
2023-05-15T16:10:18.581Z,93461.00
2023-05-15T16:14:24.266Z,93459.00
2023-05-15T16:18:27.721Z,93464.00
2023-05-15T16:22:31.422Z,93483.00
2023-05-15T16:26:34.991Z,93482.00
2023-05-15T16:30:48.935Z,93489.00
2023-05-15T16:34:53.226Z,93489.00
2023-05-15T16:38:57.935Z,93495.00
2023-05-15T16:43:01.393Z,93498.00
2023-05-15T16:47:09.886Z,93503.00
2023-05-15T16:51:13.426Z,93515.00
2023-05-15T16:55:20.268Z,93511.00
2023-05-15T16:59:23.756Z,93511.00
2023-05-15T17:03:28.900Z,93520.00
2023-05-15T17:07:34.008Z,93520.00
2023-05-15T17:11:37.539Z,93534.00
2023-05-15T17:15:41.386Z,93532.00
2023-05-15T17:19:46.384Z,93544.00
2023-05-15T17:23:52.164Z,93545.00
2023-05-15T17:27:55.656Z,93548.00
2023-05-15T17:31:59.854Z,93565.00
2023-05-15T17:36:05.247Z,93554.00
2023-05-15T17:40:09.803Z,93558.00
2023-05-15T17:44:13.343Z,93575.00
2023-05-15T17:48:17.962Z,93576.00
2023-05-15T17:52:22.836Z,93582.00
2023-05-15T17:56:26.858Z,93578.00
2023-05-15T18:00:30.389Z,93580.00
2023-05-15T18:04:35.094Z,93587.00
2023-05-15T18:08:40.044Z,93588.00
2023-05-15T18:12:43.763Z,93591.00
2023-05-15T18:16:47.193Z,93581.00
2023-05-15T18:20:51.774Z,93597.00
2023-05-15T18:24:56.625Z,93597.00
2023-05-15T18:29:01.208Z,93604.00
2023-05-15T18:33:04.742Z,93603.00
2023-05-15T18:37:08.401Z,93617.00
2023-05-15T18:41:13.329Z,93614.00
2023-05-15T18:45:17.395Z,93624.00
2023-05-15T18:49:21.524Z,93639.00
2023-05-15T18:53:24.933Z,93629.00
2023-05-15T18:57:29.820Z,93637.00
2023-05-15T19:01:33.334Z,93629.00
2023-05-15T19:05:36.937Z,93630.00
2023-05-15T19:09:40.505Z,93638.00
2023-05-15T19:13:45.445Z,93627.00
2023-05-15T19:17:49.083Z,93634.00
2023-05-15T19:21:53.349Z,93624.00
2023-05-15T19:25:56.889Z,93634.00
2023-05-15T19:30:02.317Z,93627.00
2023-05-15T19:34:06.017Z,93630.00
2023-05-15T19:38:09.462Z,93625.00
2023-05-15T19:42:13.217Z,93636.00
2023-05-15T19:46:18.615Z,93638.00
2023-05-15T19:50:23.470Z,93637.00
2023-05-15T19:54:27.010Z,93638.00
2023-05-15T19:58:30.693Z,93636.00
2023-05-15T20:02:35.776Z,93631.00
2023-05-15T20:06:39.274Z,93636.00
2023-05-15T20:10:42.945Z,93627.00
2023-05-15T20:14:50.322Z,93633.00
2023-05-15T20:18:57.437Z,93623.00
2023-05-15T20:23:00.944Z,93625.00
2023-05-15T20:27:06.782Z,93613.00
2023-05-15T20:31:10.226Z,93625.00
2023-05-15T20:35:17.010Z,93622.00
2023-05-15T20:39:21.508Z,93619.00
2023-05-15T20:43:25.273Z,93627.00
2023-05-15T20:47:28.915Z,93628.00
2023-05-15T20:51:33.836Z,93616.00
2023-05-15T20:55:37.552Z,93618.00
2023-05-15T20:59:41.150Z,93627.00
2023-05-15T21:03:44.944Z,93634.00
2023-05-15T21:07:50.126Z,93636.00
2023-05-15T21:11:53.690Z,93643.00
2023-05-15T21:15:57.367Z,93634.00
2023-05-15T21:20:02.169Z,93640.00
2023-05-15T21:24:07.951Z,93647.00
2023-05-15T21:28:11.874Z,93645.00
2023-05-15T21:32:15.559Z,93651.00
2023-05-15T21:36:19.079Z,93646.00
2023-05-15T21:40:24.227Z,93642.00
2023-05-15T21:44:27.980Z,93649.00
2023-05-15T21:48:32.674Z,93647.00
2023-05-15T21:52:36.185Z,93650.00
2023-05-15T21:56:41.356Z,93651.00
2023-05-15T22:00:44.848Z,93666.00
2023-05-15T22:04:48.291Z,93670.00
2023-05-15T22:08:51.796Z,93673.00
2023-05-15T22:12:59.127Z,93679.00
2023-05-15T22:17:02.656Z,93682.00
2023-05-15T22:21:07.447Z,93683.00
2023-05-15T22:25:11.510Z,93703.00
2023-05-15T22:29:16.444Z,93686.00
2023-05-15T22:33:24.248Z,93687.00
2023-05-15T22:37:27.948Z,93684.00
2023-05-15T22:41:31.490Z,93678.00
2023-05-15T22:45:36.563Z,93676.00
2023-05-15T22:49:39.996Z,93671.00
2023-05-15T22:53:43.546Z,93675.00
2023-05-15T22:57:49.113Z,93683.00
2023-05-15T23:01:54.086Z,93677.00
2023-05-15T23:05:57.734Z,93680.00
2023-05-15T23:10:01.378Z,93681.00
2023-05-15T23:14:04.986Z,93687.00
2023-05-15T23:18:10.020Z,93695.00
2023-05-15T23:22:13.547Z,93687.00
2023-05-15T23:26:17.032Z,93693.00
2023-05-15T23:30:20.608Z,93693.00
2023-05-15T23:34:25.608Z,93698.00
2023-05-15T23:38:29.118Z,93692.00
2023-05-15T23:42:33.723Z,93682.00
2023-05-15T23:46:39.074Z,93694.00
2023-05-15T23:50:43.988Z,93677.00
2023-05-15T23:54:48.592Z,93676.00
2023-05-15T23:58:51.991Z,93675.00
